sensor_id;sensor_type;location;lat;lon;timestamp;pressure;altitude;pressure_sealevel;temperature;humidity
4836;BME280;66719;51.226;6.902;2023-07-13T00:02:17;100723.13;;;18.85;76.50
4836;BME280;66719;51.226;6.902;2023-07-13T00:04:44;100726.88;;;18.81;77.36
4836;BME280;66719;51.226;6.902;2023-07-13T00:07:11;100726.00;;;18.81;78.22
4836;BME280;66719;51.226;6.902;2023-07-13T00:09:40;100729.44;;;18.83;77.95
4836;BME280;66719;51.226;6.902;2023-07-13T00:12:23;100721.56;;;18.81;77.51
4836;BME280;66719;51.226;6.902;2023-07-13T00:14:50;100723.59;;;18.76;77.60
4836;BME280;66719;51.226;6.902;2023-07-13T00:17:16;100727.19;;;18.75;78.95
4836;BME280;66719;51.226;6.902;2023-07-13T00:19:43;100737.88;;;18.74;78.48
4836;BME280;66719;51.226;6.902;2023-07-13T00:22:09;100727.66;;;18.66;77.83
4836;BME280;66719;51.226;6.902;2023-07-13T00:24:36;100729.53;;;18.64;78.46
4836;BME280;66719;51.226;6.902;2023-07-13T00:27:09;100729.69;;;18.61;79.13
4836;BME280;66719;51.226;6.902;2023-07-13T00:29:36;100740.91;;;18.49;79.58
4836;BME280;66719;51.226;6.902;2023-07-13T00:32:04;100728.97;;;18.40;80.38
4836;BME280;66719;51.226;6.902;2023-07-13T00:34:31;100731.25;;;18.30;80.10
4836;BME280;66719;51.226;6.902;2023-07-13T00:36:59;100736.53;;;18.30;80.77
4836;BME280;66719;51.226;6.902;2023-07-13T00:39:27;100731.25;;;18.30;81.41
4836;BME280;66719;51.226;6.902;2023-07-13T00:41:54;100729.38;;;18.32;82.46
4836;BME280;66719;51.226;6.902;2023-07-13T00:44:20;100733.13;;;18.28;83.27
4836;BME280;66719;51.226;6.902;2023-07-13T00:46:50;100733.50;;;18.21;83.15
4836;BME280;66719;51.226;6.902;2023-07-13T00:49:20;100734.44;;;18.20;84.61
4836;BME280;66719;51.226;6.902;2023-07-13T00:51:55;100729.22;;;18.18;86.28
4836;BME280;66719;51.226;6.902;2023-07-13T00:54:29;100733.88;;;18.13;86.74
4836;BME280;66719;51.226;6.902;2023-07-13T00:57:00;100733.25;;;18.08;87.87
4836;BME280;66719;51.226;6.902;2023-07-13T00:59:27;100729.03;;;18.04;87.90
4836;BME280;66719;51.226;6.902;2023-07-13T01:01:54;100729.03;;;18.04;88.98
4836;BME280;66719;51.226;6.902;2023-07-13T01:04:24;100737.22;;;17.99;89.34
4836;BME280;66719;51.226;6.902;2023-07-13T01:06:51;100732.13;;;17.95;89.53
4836;BME280;66719;51.226;6.902;2023-07-13T01:09:19;100728.88;;;17.90;89.96
4836;BME280;66719;51.226;6.902;2023-07-13T01:11:47;100723.56;;;17.90;91.26
4836;BME280;66719;51.226;6.902;2023-07-13T01:14:14;100722.75;;;17.88;90.84
4836;BME280;66719;51.226;6.902;2023-07-13T01:16:42;100716.03;;;17.80;90.99
4836;BME280;66719;51.226;6.902;2023-07-13T01:19:37;100726.56;;;17.63;92.12
4836;BME280;66719;51.226;6.902;2023-07-13T01:22:07;100727.50;;;17.62;91.86
4836;BME280;66719;51.226;6.902;2023-07-13T01:24:36;100725.09;;;17.58;94.96
4836;BME280;66719;51.226;6.902;2023-07-13T01:27:03;100727.94;;;17.53;94.31
4836;BME280;66719;51.226;6.902;2023-07-13T01:29:31;100736.69;;;17.55;93.51
4836;BME280;66719;51.226;6.902;2023-07-13T01:31:59;100728.28;;;17.45;95.62
4836;BME280;66719;51.226;6.902;2023-07-13T01:34:27;100722.28;;;17.42;96.03
4836;BME280;66719;51.226;6.902;2023-07-13T01:36:54;100715.38;;;17.39;97.28
4836;BME280;66719;51.226;6.902;2023-07-13T01:39:21;100715.38;;;17.39;97.71
4836;BME280;66719;51.226;6.902;2023-07-13T01:41:48;100722.81;;;17.31;99.71
4836;BME280;66719;51.226;6.902;2023-07-13T01:44:15;100717.63;;;17.28;100.00
4836;BME280;66719;51.226;6.902;2023-07-13T01:46:41;100729.06;;;17.29;99.46
4836;BME280;66719;51.226;6.902;2023-07-13T01:49:08;100732.09;;;17.21;100.00
4836;BME280;66719;51.226;6.902;2023-07-13T01:51:34;100738.53;;;17.15;100.00
4836;BME280;66719;51.226;6.902;2023-07-13T01:54:01;100735.50;;;17.04;100.00
4836;BME280;66719;51.226;6.902;2023-07-13T01:56:27;100738.19;;;17.03;100.00
4836;BME280;66719;51.226;6.902;2023-07-13T01:58:54;100737.16;;;17.07;100.00
4836;BME280;66719;51.226;6.902;2023-07-13T02:01:20;100734.34;;;17.10;100.00
4836;BME280;66719;51.226;6.902;2023-07-13T02:03:47;100738.00;;;17.07;100.00
4836;BME280;66719;51.226;6.902;2023-07-13T02:06:13;100725.44;;;17.12;100.00
4836;BME280;66719;51.226;6.902;2023-07-13T02:08:41;100742.22;;;17.11;100.00
4836;BME280;66719;51.226;6.902;2023-07-13T02:11:08;100736.94;;;17.11;100.00
4836;BME280;66719;51.226;6.902;2023-07-13T02:13:35;100732.38;;;17.15;100.00
4836;BME280;66719;51.226;6.902;2023-07-13T02:16:01;100728.88;;;17.14;100.00
4836;BME280;66719;51.226;6.902;2023-07-13T02:18:28;100738.09;;;17.06;100.00
4836;BME280;66719;51.226;6.902;2023-07-13T02:20:55;100732.53;;;17.12;100.00
4836;BME280;66719;51.226;6.902;2023-07-13T02:23:21;100727.63;;;17.03;100.00
4836;BME280;66719;51.226;6.902;2023-07-13T02:25:48;100740.91;;;17.01;100.00
4836;BME280;66719;51.226;6.902;2023-07-13T02:28:14;100739.50;;;16.94;100.00
4836;BME280;66719;51.226;6.902;2023-07-13T02:30:41;100746.38;;;16.98;100.00
4836;BME280;66719;51.226;6.902;2023-07-13T02:33:07;100742.16;;;16.94;100.00
4836;BME280;66719;51.226;6.902;2023-07-13T02:35:34;100748.63;;;16.87;100.00
4836;BME280;66719;51.226;6.902;2023-07-13T02:38:00;100750.81;;;16.77;100.00
4836;BME280;66719;51.226;6.902;2023-07-13T02:40:27;100749.22;;;16.73;100.00
4836;BME280;66719;51.226;6.902;2023-07-13T02:42:53;100740.44;;;16.73;100.00
4836;BME280;66719;51.226;6.902;2023-07-13T02:45:20;100742.72;;;16.60;100.00
4836;BME280;66719;51.226;6.902;2023-07-13T02:47:46;100742.84;;;16.57;100.00
4836;BME280;66719;51.226;6.902;2023-07-13T02:50:13;100731.75;;;16.49;100.00
4836;BME280;66719;51.226;6.902;2023-07-13T02:52:39;100743.16;;;16.49;100.00
4836;BME280;66719;51.226;6.902;2023-07-13T02:55:06;100743.31;;;16.46;100.00
4836;BME280;66719;51.226;6.902;2023-07-13T02:57:33;100750.31;;;16.47;100.00
4836;BME280;66719;51.226;6.902;2023-07-13T03:00:01;100753.88;;;16.46;100.00
4836;BME280;66719;51.226;6.902;2023-07-13T03:02:27;100750.31;;;16.47;100.00
4836;BME280;66719;51.226;6.902;2023-07-13T03:04:55;100754.41;;;16.54;100.00
4836;BME280;66719;51.226;6.902;2023-07-13T03:07:22;100750.84;;;16.55;100.00
4836;BME280;66719;51.226;6.902;2023-07-13T03:09:55;100745.56;;;16.55;100.00
4836;BME280;66719;51.226;6.902;2023-07-13T03:12:23;100747.41;;;16.53;100.00
4836;BME280;66719;51.226;6.902;2023-07-13T03:14:50;100758.19;;;16.49;100.00
4836;BME280;66719;51.226;6.902;2023-07-13T03:17:16;100758.72;;;16.36;100.00
4836;BME280;66719;51.226;6.902;2023-07-13T03:19:43;100758.88;;;16.32;100.00
4836;BME280;66719;51.226;6.902;2023-07-13T03:22:10;100760.72;;;16.30;100.00
4836;BME280;66719;51.226;6.902;2023-07-13T03:24:36;100759.41;;;16.40;100.00
4836;BME280;66719;51.226;6.902;2023-07-13T03:27:06;100759.31;;;16.43;100.00
4836;BME280;66719;51.226;6.902;2023-07-13T03:29:32;100763.47;;;16.49;100.00
4836;BME280;66719;51.226;6.902;2023-07-13T03:31:59;100761.09;;;16.43;100.00
4836;BME280;66719;51.226;6.902;2023-07-13T03:34:25;100767.16;;;16.45;100.00
4836;BME280;66719;51.226;6.902;2023-07-13T03:36:56;100759.31;;;16.43;100.00
4836;BME280;66719;51.226;6.902;2023-07-13T03:39:22;100766.19;;;16.47;100.00
4836;BME280;66719;51.226;6.902;2023-07-13T03:41:49;100770.69;;;16.45;100.00
4836;BME280;66719;51.226;6.902;2023-07-13T03:44:17;100774.84;;;16.51;100.00
4836;BME280;66719;51.226;6.902;2023-07-13T03:46:44;100776.34;;;16.56;100.00
4836;BME280;66719;51.226;6.902;2023-07-13T03:49:11;100772.72;;;16.59;100.00
4836;BME280;66719;51.226;6.902;2023-07-13T03:51:38;100767.63;;;16.54;100.00
4836;BME280;66719;51.226;6.902;2023-07-13T03:54:05;100773.72;;;16.56;100.00
4836;BME280;66719;51.226;6.902;2023-07-13T03:56:31;100779.75;;;16.60;100.00
4836;BME280;66719;51.226;6.902;2023-07-13T03:58:59;100774.19;;;16.66;100.00
4836;BME280;66719;51.226;6.902;2023-07-13T04:01:26;100793.69;;;16.63;100.00
4836;BME280;66719;51.226;6.902;2023-07-13T04:03:53;100785.81;;;16.62;100.00
4836;BME280;66719;51.226;6.902;2023-07-13T04:06:26;100797.50;;;16.56;100.00
4836;BME280;66719;51.226;6.902;2023-07-13T04:08:56;100796.72;;;16.54;100.00
4836;BME280;66719;51.226;6.902;2023-07-13T04:11:26;100801.31;;;16.49;100.00
4836;BME280;66719;51.226;6.902;2023-07-13T04:13:54;100797.75;;;16.50;100.00
4836;BME280;66719;51.226;6.902;2023-07-13T04:16:21;100808.34;;;16.50;100.00
4836;BME280;66719;51.226;6.902;2023-07-13T04:18:48;100808.47;;;16.47;100.00
4836;BME280;66719;51.226;6.902;2023-07-13T04:21:16;100809.22;;;16.51;100.00
4836;BME280;66719;51.226;6.902;2023-07-13T04:23:43;100811.59;;;16.57;100.00
4836;BME280;66719;51.226;6.902;2023-07-13T04:26:10;100802.69;;;16.59;100.00
4836;BME280;66719;51.226;6.902;2023-07-13T04:28:37;100809.69;;;16.60;100.00
4836;BME280;66719;51.226;6.902;2023-07-13T04:31:03;100816.19;;;16.74;100.00
4836;BME280;66719;51.226;6.902;2023-07-13T04:33:30;100813.13;;;16.62;100.00
4836;BME280;66719;51.226;6.902;2023-07-13T04:35:57;100813.97;;;16.63;100.00
4836;BME280;66719;51.226;6.902;2023-07-13T04:38:30;100815.56;;;16.67;100.00
4836;BME280;66719;51.226;6.902;2023-07-13T04:41:00;100813.44;;;16.77;100.00
4836;BME280;66719;51.226;6.902;2023-07-13T04:43:28;100811.50;;;16.80;100.00
4836;BME280;66719;51.226;6.902;2023-07-13T04:45:55;100807.78;;;16.84;100.00
4836;BME280;66719;51.226;6.902;2023-07-13T04:48:23;100812.84;;;16.90;100.00
4836;BME280;66719;51.226;6.902;2023-07-13T04:50:57;100818.13;;;16.90;100.00
4836;BME280;66719;51.226;6.902;2023-07-13T04:53:25;100815.28;;;16.95;100.00
4836;BME280;66719;51.226;6.902;2023-07-13T04:55:52;100814.44;;;16.94;100.00
4836;BME280;66719;51.226;6.902;2023-07-13T04:58:19;100816.00;;;16.99;100.00
4836;BME280;66719;51.226;6.902;2023-07-13T05:00:45;100813.28;;;17.00;100.00
4836;BME280;66719;51.226;6.902;2023-07-13T05:03:12;100816.22;;;16.94;100.00
4836;BME280;66719;51.226;6.902;2023-07-13T05:05:39;100816.00;;;16.99;100.00
4836;BME280;66719;51.226;6.902;2023-07-13T05:08:05;100820.19;;;17.04;100.00
4836;BME280;66719;51.226;6.902;2023-07-13T05:10:34;100819.44;;;17.01;100.00
4836;BME280;66719;51.226;6.902;2023-07-13T05:13:01;100833.41;;;17.04;100.00
4836;BME280;66719;51.226;6.902;2023-07-13T05:15:27;100832.59;;;17.02;100.00
4836;BME280;66719;51.226;6.902;2023-07-13T05:17:54;100832.59;;;17.02;100.00
4836;BME280;66719;51.226;6.902;2023-07-13T05:20:21;100825.31;;;17.07;100.00
4836;BME280;66719;51.226;6.902;2023-07-13T05:22:47;100836.59;;;17.12;100.00
4836;BME280;66719;51.226;6.902;2023-07-13T05:25:14;100837.38;;;17.14;100.00
4836;BME280;66719;51.226;6.902;2023-07-13T05:27:41;100842.50;;;17.17;100.00
4836;BME280;66719;51.226;6.902;2023-07-13T05:30:08;100842.50;;;17.17;100.00
4836;BME280;66719;51.226;6.902;2023-07-13T05:32:37;100835.50;;;17.16;100.00
4836;BME280;66719;51.226;6.902;2023-07-13T05:35:04;100842.50;;;17.17;100.00
4836;BME280;66719;51.226;6.902;2023-07-13T05:37:31;100831.16;;;17.15;100.00
4836;BME280;66719;51.226;6.902;2023-07-13T05:39:57;100844.16;;;17.20;100.00
4836;BME280;66719;51.226;6.902;2023-07-13T05:42:24;100854.75;;;17.20;100.00
4836;BME280;66719;51.226;6.902;2023-07-13T05:44:50;100863.56;;;17.20;100.00
4836;BME280;66719;51.226;6.902;2023-07-13T05:47:17;100866.00;;;17.25;100.00
4836;BME280;66719;51.226;6.902;2023-07-13T05:49:44;100861.72;;;17.22;100.00
4836;BME280;66719;51.226;6.902;2023-07-13T05:52:10;100858.13;;;17.23;100.00
4836;BME280;66719;51.226;6.902;2023-07-13T05:54:37;100860.00;;;17.21;100.00
4836;BME280;66719;51.226;6.902;2023-07-13T05:57:03;100862.56;;;17.23;100.00
4836;BME280;66719;51.226;6.902;2023-07-13T05:59:30;100851.13;;;17.22;100.00
4836;BME280;66719;51.226;6.902;2023-07-13T06:01:57;100862.56;;;17.23;100.00
4836;BME280;66719;51.226;6.902;2023-07-13T06:04:23;100868.91;;;17.19;100.00
4836;BME280;66719;51.226;6.902;2023-07-13T06:06:50;100869.75;;;17.19;100.00
4836;BME280;66719;51.226;6.902;2023-07-13T06:09:16;100870.44;;;17.04;100.00
4836;BME280;66719;51.226;6.902;2023-07-13T06:11:43;100874.81;;;17.05;100.00
4836;BME280;66719;51.226;6.902;2023-07-13T06:14:10;100879.63;;;17.16;100.00
4836;BME280;66719;51.226;6.902;2023-07-13T06:16:36;100871.38;;;17.23;100.00
4836;BME280;66719;51.226;6.902;2023-07-13T06:19:03;100886.06;;;17.31;100.00
4836;BME280;66719;51.226;6.902;2023-07-13T06:21:29;100885.78;;;17.37;100.00
4836;BME280;66719;51.226;6.902;2023-07-13T06:23:56;100883.06;;;17.38;100.00
4836;BME280;66719;51.226;6.902;2023-07-13T06:26:24;100896.16;;;17.41;100.00
4836;BME280;66719;51.226;6.902;2023-07-13T06:28:52;100885.66;;;17.40;100.00
4836;BME280;66719;51.226;6.902;2023-07-13T06:31:18;100893.53;;;17.41;100.00
4836;BME280;66719;51.226;6.902;2023-07-13T06:33:45;100890.66;;;17.46;100.00
4836;BME280;66719;51.226;6.902;2023-07-13T06:36:12;100887.75;;;17.52;100.00
4836;BME280;66719;51.226;6.902;2023-07-13T06:38:38;100887.91;;;17.49;100.00
4836;BME280;66719;51.226;6.902;2023-07-13T06:41:06;100894.34;;;17.62;100.00
4836;BME280;66719;51.226;6.902;2023-07-13T06:43:34;100892.63;;;17.61;100.00
4836;BME280;66719;51.226;6.902;2023-07-13T06:46:00;100886.28;;;17.65;100.00
4836;BME280;66719;51.226;6.902;2023-07-13T06:48:27;100886.59;;;17.78;100.00
4836;BME280;66719;51.226;6.902;2023-07-13T06:50:54;100888.47;;;17.95;100.00
4836;BME280;66719;51.226;6.902;2023-07-13T06:53:22;100889.75;;;18.05;100.00
4836;BME280;66719;51.226;6.902;2023-07-13T06:55:49;100893.75;;;18.14;100.00
4836;BME280;66719;51.226;6.902;2023-07-13T06:58:18;100894.34;;;18.20;100.00
4836;BME280;66719;51.226;6.902;2023-07-13T07:00:45;100900.34;;;18.05;100.00
4836;BME280;66719;51.226;6.902;2023-07-13T07:03:12;100908.16;;;17.89;100.00
4836;BME280;66719;51.226;6.902;2023-07-13T07:05:40;100904.72;;;17.87;100.00
4836;BME280;66719;51.226;6.902;2023-07-13T07:08:06;100902.06;;;18.06;100.00
4836;BME280;66719;51.226;6.902;2023-07-13T07:10:34;100905.09;;;18.17;100.00
4836;BME280;66719;51.226;6.902;2023-07-13T07:13:01;100906.66;;;18.21;100.00
4836;BME280;66719;51.226;6.902;2023-07-13T07:15:27;100904.59;;;18.09;100.00
4836;BME280;66719;51.226;6.902;2023-07-13T07:17:54;100907.59;;;18.01;100.00
4836;BME280;66719;51.226;6.902;2023-07-13T07:20:21;100908.19;;;18.08;100.00
4836;BME280;66719;51.226;6.902;2023-07-13T07:22:48;100899.00;;;18.15;100.00
4836;BME280;66719;51.226;6.902;2023-07-13T07:25:15;100906.75;;;18.20;100.00
4836;BME280;66719;51.226;6.902;2023-07-13T07:27:41;100910.09;;;18.04;100.00
4836;BME280;66719;51.226;6.902;2023-07-13T07:30:11;100905.81;;;18.21;100.00
4836;BME280;66719;51.226;6.902;2023-07-13T07:32:41;100914.13;;;18.13;100.00
4836;BME280;66719;51.226;6.902;2023-07-13T07:35:23;100928.31;;;18.12;100.00
4836;BME280;66719;51.226;6.902;2023-07-13T07:37:50;100915.19;;;18.09;100.00
4836;BME280;66719;51.226;6.902;2023-07-13T07:40:17;100918.56;;;18.13;100.00
4836;BME280;66719;51.226;6.902;2023-07-13T07:42:47;100923.09;;;18.11;100.00
4836;BME280;66719;51.226;6.902;2023-07-13T07:45:14;100905.97;;;17.99;100.00
4836;BME280;66719;51.226;6.902;2023-07-13T07:47:41;100914.81;;;17.98;100.00
4836;BME280;66719;51.226;6.902;2023-07-13T07:50:08;100919.84;;;18.04;100.00
4836;BME280;66719;51.226;6.902;2023-07-13T07:52:35;100921.63;;;18.03;100.00
4836;BME280;66719;51.226;6.902;2023-07-13T07:55:04;100923.78;;;18.14;100.00
4836;BME280;66719;51.226;6.902;2023-07-13T07:57:34;100925.66;;;18.12;100.00
4836;BME280;66719;51.226;6.902;2023-07-13T08:00:04;100916.75;;;18.32;100.00
4836;BME280;66719;51.226;6.902;2023-07-13T08:02:33;100918.69;;;18.47;100.00
4836;BME280;66719;51.226;6.902;2023-07-13T08:05:03;100913.88;;;18.55;100.00
4836;BME280;66719;51.226;6.902;2023-07-13T08:07:32;100914.66;;;18.57;100.00
4836;BME280;66719;51.226;6.902;2023-07-13T08:09:59;100916.88;;;18.67;100.00
4836;BME280;66719;51.226;6.902;2023-07-13T08:12:26;100926.41;;;18.71;100.00
4836;BME280;66719;51.226;6.902;2023-07-13T08:14:55;100915.66;;;18.74;100.00
4836;BME280;66719;51.226;6.902;2023-07-13T08:17:27;100912.53;;;18.83;100.00
4836;BME280;66719;51.226;6.902;2023-07-13T08:19:54;100920.28;;;18.87;100.00
4836;BME280;66719;51.226;6.902;2023-07-13T08:22:21;100919.06;;;18.95;100.00
4836;BME280;66719;51.226;6.902;2023-07-13T08:24:48;100917.38;;;19.09;100.00
4836;BME280;66719;51.226;6.902;2023-07-13T08:27:26;100908.00;;;19.19;100.00
4836;BME280;66719;51.226;6.902;2023-07-13T08:29:53;100917.47;;;19.25;100.00
4836;BME280;66719;51.226;6.902;2023-07-13T08:32:21;100913.66;;;19.13;100.00
4836;BME280;66719;51.226;6.902;2023-07-13T08:34:48;100914.91;;;19.06;100.00
4836;BME280;66719;51.226;6.902;2023-07-13T08:37:16;100908.44;;;19.12;100.00
4836;BME280;66719;51.226;6.902;2023-07-13T08:39:43;100914.22;;;19.20;100.00
4836;BME280;66719;51.226;6.902;2023-07-13T08:45:21;100900.00;;;19.21;100.00
4836;BME280;66719;51.226;6.902;2023-07-13T08:48:01;100908.09;;;19.35;100.00
4836;BME280;66719;51.226;6.902;2023-07-13T08:50:33;100905.56;;;19.49;100.00
4836;BME280;66719;51.226;6.902;2023-07-13T08:53:21;100898.94;;;19.58;100.00
4836;BME280;66719;51.226;6.902;2023-07-13T08:55:58;100900.84;;;19.56;100.00
4836;BME280;66719;51.226;6.902;2023-07-13T08:58:26;100895.97;;;19.64;100.00
4836;BME280;66719;51.226;6.902;2023-07-13T09:01:04;100898.91;;;19.75;100.00
4836;BME280;66719;51.226;6.902;2023-07-13T09:03:41;100898.47;;;19.67;100.00
4836;BME280;66719;51.226;6.902;2023-07-13T09:06:11;100898.91;;;19.75;100.00
4836;BME280;66719;51.226;6.902;2023-07-13T09:08:52;100908.31;;;19.65;100.00
4836;BME280;66719;51.226;6.902;2023-07-13T09:12:22;100910.56;;;19.56;100.00
4836;BME280;66719;51.226;6.902;2023-07-13T09:14:41;100901.97;;;19.68;100.00
4836;BME280;66719;51.226;6.902;2023-07-13T09:17:14;100904.03;;;19.79;100.00
4836;BME280;66719;51.226;6.902;2023-07-13T09:19:46;100907.88;;;19.90;100.00
4836;BME280;66719;51.226;6.902;2023-07-13T09:22:17;100911.44;;;19.89;100.00
4836;BME280;66719;51.226;6.902;2023-07-13T09:25:05;100917.88;;;19.85;100.00
4836;BME280;66719;51.226;6.902;2023-07-13T09:27:38;100914.28;;;19.86;100.00
4836;BME280;66719;51.226;6.902;2023-07-13T09:32:45;100912.47;;;19.87;100.00
4836;BME280;66719;51.226;6.902;2023-07-13T09:35:24;100914.53;;;19.97;100.00
4836;BME280;66719;51.226;6.902;2023-07-13T09:37:58;100920.88;;;19.95;100.00
4836;BME280;66719;51.226;6.902;2023-07-13T09:40:43;100917.06;;;20.00;100.00
4836;BME280;66719;51.226;6.902;2023-07-13T09:43:13;100924.75;;;20.05;100.00
4836;BME280;66719;51.226;6.902;2023-07-13T09:45:40;100923.22;;;20.01;100.00
4836;BME280;66719;51.226;6.902;2023-07-13T09:48:11;100928.81;;;19.79;100.00
4836;BME280;66719;51.226;6.902;2023-07-13T09:50:40;100929.78;;;19.78;99.75
4836;BME280;66719;51.226;6.902;2023-07-13T09:53:12;100928.81;;;19.79;100.00
4836;BME280;66719;51.226;6.902;2023-07-13T09:55:41;100922.75;;;19.77;99.40
4836;BME280;66719;51.226;6.902;2023-07-13T09:58:20;100923.00;;;19.88;100.00
4836;BME280;66719;51.226;6.902;2023-07-13T10:00:56;100938.84;;;20.07;100.00
4836;BME280;66719;51.226;6.902;2023-07-13T10:03:29;100937.28;;;20.03;96.89
4836;BME280;66719;51.226;6.902;2023-07-13T10:06:14;100930.50;;;19.97;98.92
4836;BME280;66719;51.226;6.902;2023-07-13T10:08:41;100937.28;;;20.03;98.89
4836;BME280;66719;51.226;6.902;2023-07-13T10:11:20;100934.38;;;20.08;96.31
4836;BME280;66719;51.226;6.902;2023-07-13T10:14:14;100935.59;;;20.18;96.06
4836;BME280;66719;51.226;6.902;2023-07-13T10:16:43;100939.34;;;20.14;93.95
4836;BME280;66719;51.226;6.902;2023-07-13T10:19:16;100937.97;;;20.07;96.07
4836;BME280;66719;51.226;6.902;2023-07-13T10:21:52;100933.44;;;20.09;95.08
4836;BME280;66719;51.226;6.902;2023-07-13T10:24:21;100931.03;;;20.04;94.21
4836;BME280;66719;51.226;6.902;2023-07-13T10:27:03;100937.41;;;20.17;94.77
4836;BME280;66719;51.226;6.902;2023-07-13T10:29:36;100937.41;;;20.33;93.56
4836;BME280;66719;51.226;6.902;2023-07-13T10:32:11;100951.56;;;20.18;90.20
4836;BME280;66719;51.226;6.902;2023-07-13T10:34:43;100941.69;;;20.20;90.93
4836;BME280;66719;51.226;6.902;2023-07-13T10:37:20;100946.94;;;20.37;93.05
4836;BME280;66719;51.226;6.902;2023-07-13T10:39:50;100944.09;;;20.40;90.64
4836;BME280;66719;51.226;6.902;2023-07-13T10:42:28;100939.63;;;20.41;89.15
4836;BME280;66719;51.226;6.902;2023-07-13T10:44:56;100953.78;;;20.41;88.20
4836;BME280;66719;51.226;6.902;2023-07-13T10:47:24;100951.13;;;20.41;88.83
4836;BME280;66719;51.226;6.902;2023-07-13T10:49:56;100938.75;;;20.40;89.43
4836;BME280;66719;51.226;6.902;2023-07-13T10:52:45;100941.88;;;20.48;88.66
4836;BME280;66719;51.226;6.902;2023-07-13T11:01:08;100952.38;;;20.51;91.08
4836;BME280;66719;51.226;6.902;2023-07-13T11:04:14;100959.03;;;20.43;90.75
4836;BME280;66719;51.226;6.902;2023-07-13T11:06:43;100955.59;;;20.41;90.84
4836;BME280;66719;51.226;6.902;2023-07-13T11:09:36;100947.47;;;20.44;90.57
4836;BME280;66719;51.226;6.902;2023-07-13T11:12:29;100943.69;;;20.48;89.35
4836;BME280;66719;51.226;6.902;2023-07-13T11:15:27;100949.19;;;20.60;90.80
4836;BME280;66719;51.226;6.902;2023-07-13T11:17:54;100953.38;;;20.65;89.24
4836;BME280;66719;51.226;6.902;2023-07-13T11:20:34;100944.63;;;20.63;87.57
4836;BME280;66719;51.226;6.902;2023-07-13T11:25:40;100937.75;;;20.74;87.27
4836;BME280;66719;51.226;6.902;2023-07-13T11:31:12;100942.91;;;20.77;87.62
4836;BME280;66719;51.226;6.902;2023-07-13T11:36:13;100935.16;;;21.18;83.89
4836;BME280;66719;51.226;6.902;2023-07-13T11:38:42;100932.47;;;21.18;82.38
4836;BME280;66719;51.226;6.902;2023-07-13T11:41:30;100936.84;;;21.20;82.67
4836;BME280;66719;51.226;6.902;2023-07-13T11:44:15;100930.38;;;21.09;81.78
4836;BME280;66719;51.226;6.902;2023-07-13T11:46:53;100929.38;;;21.26;82.38
4836;BME280;66719;51.226;6.902;2023-07-13T11:49:23;100932.47;;;21.34;79.64
4836;BME280;66719;51.226;6.902;2023-07-13T11:51:51;100924.38;;;21.36;79.56
4836;BME280;66719;51.226;6.902;2023-07-13T11:57:49;100915.81;;;21.31;79.59
4836;BME280;66719;51.226;6.902;2023-07-13T12:00:28;100911.97;;;21.65;79.31
4836;BME280;66719;51.226;6.902;2023-07-13T12:02:59;100910.16;;;22.08;80.31
4836;BME280;66719;51.226;6.902;2023-07-13T12:05:27;100906.81;;;22.46;76.13
4836;BME280;66719;51.226;6.902;2023-07-13T12:07:53;100919.47;;;22.83;75.96
4836;BME280;66719;51.226;6.902;2023-07-13T12:10:28;100909.19;;;23.17;74.15
4836;BME280;66719;51.226;6.902;2023-07-13T12:13:04;100906.97;;;23.11;72.58
4836;BME280;66719;51.226;6.902;2023-07-13T12:15:43;100914.47;;;23.44;72.66
4836;BME280;66719;51.226;6.902;2023-07-13T12:18:22;100918.69;;;22.96;69.31
4836;BME280;66719;51.226;6.902;2023-07-13T12:20:56;100905.81;;;22.34;70.41
4836;BME280;66719;51.226;6.902;2023-07-13T12:23:26;100906.31;;;22.12;72.08
4836;BME280;66719;51.226;6.902;2023-07-13T12:25:54;100900.16;;;22.39;72.55
4836;BME280;66719;51.226;6.902;2023-07-13T12:28:36;100905.97;;;22.72;70.84
4836;BME280;66719;51.226;6.902;2023-07-13T12:31:06;100899.78;;;22.45;69.03
4836;BME280;66719;51.226;6.902;2023-07-13T12:33:33;100899.53;;;22.35;69.64
4836;BME280;66719;51.226;6.902;2023-07-13T12:36:02;100912.72;;;22.78;70.27
4836;BME280;66719;51.226;6.902;2023-07-13T12:38:30;100899.53;;;22.62;71.00
4836;BME280;66719;51.226;6.902;2023-07-13T12:40:57;100909.72;;;22.43;70.59
4836;BME280;66719;51.226;6.902;2023-07-13T12:43:25;100912.59;;;22.25;68.86
4836;BME280;66719;51.226;6.902;2023-07-13T12:48:41;100907.44;;;22.22;67.23
4836;BME280;66719;51.226;6.902;2023-07-13T12:51:16;100905.94;;;22.18;66.97
4836;BME280;66719;51.226;6.902;2023-07-13T12:53:48;100910.09;;;23.56;68.13
4836;BME280;66719;51.226;6.902;2023-07-13T12:56:24;100902.00;;;24.19;62.67
4836;BME280;66719;51.226;6.902;2023-07-13T12:58:58;100903.78;;;24.44;61.41
4836;BME280;66719;51.226;6.902;2023-07-13T13:01:28;100909.88;;;24.70;61.05
4836;BME280;66719;51.226;6.902;2023-07-13T13:03:56;100900.03;;;24.71;59.10
4836;BME280;66719;51.226;6.902;2023-07-13T13:06:28;100901.59;;;24.13;61.43
4836;BME280;66719;51.226;6.902;2023-07-13T13:08:57;100904.75;;;23.56;61.80
4836;BME280;66719;51.226;6.902;2023-07-13T13:11:30;100913.44;;;22.94;62.02
4836;BME280;66719;51.226;6.902;2023-07-13T13:13:57;100910.91;;;22.51;62.89
4836;BME280;66719;51.226;6.902;2023-07-13T13:16:32;100907.41;;;22.51;64.69
4836;BME280;66719;51.226;6.902;2023-07-13T13:19:10;100902.91;;;22.51;63.71
4836;BME280;66719;51.226;6.902;2023-07-13T13:21:38;100910.72;;;22.54;65.74
4836;BME280;66719;51.226;6.902;2023-07-13T13:24:11;100909.50;;;22.46;65.48
4836;BME280;66719;51.226;6.902;2023-07-13T13:26:39;100907.31;;;22.38;65.73
4836;BME280;66719;51.226;6.902;2023-07-13T13:29:17;100906.22;;;22.28;66.19
4836;BME280;66719;51.226;6.902;2023-07-13T13:31:44;100904.69;;;22.24;65.92
4836;BME280;66719;51.226;6.902;2023-07-13T13:34:12;100908.66;;;22.31;66.24